sensor_id;sensor_type;location;lat;lon;timestamp;temperature;humidity
15630;DHT22;7914;50.842;0.166;2023-11-21T00:00:31;9.90;100.00
15630;DHT22;7914;50.842;0.166;2023-11-21T00:02:57;9.90;100.00
15630;DHT22;7914;50.842;0.166;2023-11-21T00:05:23;9.90;100.00
15630;DHT22;7914;50.842;0.166;2023-11-21T00:07:48;9.90;100.00
15630;DHT22;7914;50.842;0.166;2023-11-21T00:10:14;9.90;100.00
15630;DHT22;7914;50.842;0.166;2023-11-21T00:12:41;9.80;100.00
15630;DHT22;7914;50.842;0.166;2023-11-21T00:15:09;9.90;100.00
15630;DHT22;7914;50.842;0.166;2023-11-21T00:17:38;9.90;100.00
15630;DHT22;7914;50.842;0.166;2023-11-21T00:20:08;9.80;100.00
15630;DHT22;7914;50.842;0.166;2023-11-21T00:22:35;9.80;100.00
15630;DHT22;7914;50.842;0.166;2023-11-21T00:25:01;9.80;100.00
15630;DHT22;7914;50.842;0.166;2023-11-21T00:27:29;9.80;100.00
15630;DHT22;7914;50.842;0.166;2023-11-21T00:29:54;9.90;100.00
15630;DHT22;7914;50.842;0.166;2023-11-21T00:32:20;9.90;100.00
15630;DHT22;7914;50.842;0.166;2023-11-21T00:34:46;9.90;100.00
15630;DHT22;7914;50.842;0.166;2023-11-21T00:37:11;9.90;100.00
15630;DHT22;7914;50.842;0.166;2023-11-21T00:39:37;9.80;100.00
15630;DHT22;7914;50.842;0.166;2023-11-21T00:42:03;9.80;100.00
15630;DHT22;7914;50.842;0.166;2023-11-21T00:44:30;9.70;100.00
15630;DHT22;7914;50.842;0.166;2023-11-21T00:46:56;9.70;100.00
15630;DHT22;7914;50.842;0.166;2023-11-21T00:49:21;9.70;100.00
15630;DHT22;7914;50.842;0.166;2023-11-21T00:51:47;9.70;100.00
15630;DHT22;7914;50.842;0.166;2023-11-21T00:54:13;9.80;100.00
15630;DHT22;7914;50.842;0.166;2023-11-21T00:56:38;9.80;100.00
15630;DHT22;7914;50.842;0.166;2023-11-21T00:59:05;9.80;100.00
15630;DHT22;7914;50.842;0.166;2023-11-21T01:01:31;9.80;100.00
15630;DHT22;7914;50.842;0.166;2023-11-21T01:03:56;9.90;100.00
15630;DHT22;7914;50.842;0.166;2023-11-21T01:06:22;10.00;100.00
15630;DHT22;7914;50.842;0.166;2023-11-21T01:08:48;9.90;100.00
15630;DHT22;7914;50.842;0.166;2023-11-21T01:11:14;9.90;100.00
15630;DHT22;7914;50.842;0.166;2023-11-21T01:13:40;9.90;100.00
15630;DHT22;7914;50.842;0.166;2023-11-21T01:16:07;10.00;100.00
15630;DHT22;7914;50.842;0.166;2023-11-21T01:18:33;10.00;100.00
15630;DHT22;7914;50.842;0.166;2023-11-21T01:21:00;10.00;100.00
15630;DHT22;7914;50.842;0.166;2023-11-21T01:23:26;10.00;100.00
15630;DHT22;7914;50.842;0.166;2023-11-21T01:25:52;10.00;100.00
15630;DHT22;7914;50.842;0.166;2023-11-21T01:28:18;10.00;100.00
15630;DHT22;7914;50.842;0.166;2023-11-21T01:30:45;10.00;100.00
15630;DHT22;7914;50.842;0.166;2023-11-21T01:33:11;9.90;100.00
15630;DHT22;7914;50.842;0.166;2023-11-21T01:35:37;10.00;100.00
15630;DHT22;7914;50.842;0.166;2023-11-21T01:38:03;9.90;100.00
15630;DHT22;7914;50.842;0.166;2023-11-21T01:40:29;9.90;100.00
15630;DHT22;7914;50.842;0.166;2023-11-21T01:42:56;10.00;100.00
15630;DHT22;7914;50.842;0.166;2023-11-21T01:45:22;10.00;100.00
15630;DHT22;7914;50.842;0.166;2023-11-21T01:47:50;9.90;100.00
15630;DHT22;7914;50.842;0.166;2023-11-21T01:50:17;9.90;100.00
15630;DHT22;7914;50.842;0.166;2023-11-21T01:52:45;9.90;100.00
15630;DHT22;7914;50.842;0.166;2023-11-21T01:55:11;9.90;100.00
15630;DHT22;7914;50.842;0.166;2023-11-21T01:57:37;9.90;100.00
15630;DHT22;7914;50.842;0.166;2023-11-21T02:00:04;10.00;100.00
15630;DHT22;7914;50.842;0.166;2023-11-21T02:02:42;10.00;100.00
15630;DHT22;7914;50.842;0.166;2023-11-21T02:05:09;10.00;100.00
15630;DHT22;7914;50.842;0.166;2023-11-21T02:07:36;9.90;100.00
15630;DHT22;7914;50.842;0.166;2023-11-21T02:10:03;10.00;100.00
15630;DHT22;7914;50.842;0.166;2023-11-21T02:12:30;10.00;100.00
15630;DHT22;7914;50.842;0.166;2023-11-21T02:14:55;10.00;100.00
15630;DHT22;7914;50.842;0.166;2023-11-21T02:17:21;10.00;100.00
15630;DHT22;7914;50.842;0.166;2023-11-21T02:19:47;10.10;100.00
15630;DHT22;7914;50.842;0.166;2023-11-21T02:22:17;10.10;100.00
15630;DHT22;7914;50.842;0.166;2023-11-21T02:24:46;10.00;100.00
15630;DHT22;7914;50.842;0.166;2023-11-21T02:27:13;10.00;100.00
15630;DHT22;7914;50.842;0.166;2023-11-21T02:29:39;10.00;100.00
15630;DHT22;7914;50.842;0.166;2023-11-21T02:32:04;10.00;100.00
15630;DHT22;7914;50.842;0.166;2023-11-21T02:34:31;9.90;100.00
15630;DHT22;7914;50.842;0.166;2023-11-21T02:36:56;9.90;100.00
15630;DHT22;7914;50.842;0.166;2023-11-21T02:39:22;9.80;100.00
15630;DHT22;7914;50.842;0.166;2023-11-21T02:41:49;9.70;100.00
15630;DHT22;7914;50.842;0.166;2023-11-21T02:44:15;9.60;100.00
15630;DHT22;7914;50.842;0.166;2023-11-21T02:46:41;9.50;100.00
15630;DHT22;7914;50.842;0.166;2023-11-21T02:49:07;9.50;100.00
15630;DHT22;7914;50.842;0.166;2023-11-21T02:51:33;9.50;100.00
15630;DHT22;7914;50.842;0.166;2023-11-21T02:53:59;9.60;100.00
15630;DHT22;7914;50.842;0.166;2023-11-21T02:56:28;9.70;100.00
15630;DHT22;7914;50.842;0.166;2023-11-21T02:58:59;9.70;100.00
15630;DHT22;7914;50.842;0.166;2023-11-21T03:01:25;9.60;100.00
15630;DHT22;7914;50.842;0.166;2023-11-21T03:03:51;9.70;100.00
15630;DHT22;7914;50.842;0.166;2023-11-21T03:06:20;9.70;100.00
15630;DHT22;7914;50.842;0.166;2023-11-21T03:08:46;9.70;100.00
15630;DHT22;7914;50.842;0.166;2023-11-21T03:11:13;9.70;100.00
15630;DHT22;7914;50.842;0.166;2023-11-21T03:13:40;9.70;100.00
15630;DHT22;7914;50.842;0.166;2023-11-21T03:16:10;9.70;100.00
15630;DHT22;7914;50.842;0.166;2023-11-21T03:18:37;9.80;100.00
15630;DHT22;7914;50.842;0.166;2023-11-21T03:21:07;9.80;100.00
15630;DHT22;7914;50.842;0.166;2023-11-21T03:23:36;9.90;100.00
15630;DHT22;7914;50.842;0.166;2023-11-21T03:26:03;9.80;100.00
15630;DHT22;7914;50.842;0.166;2023-11-21T03:28:28;9.80;100.00
15630;DHT22;7914;50.842;0.166;2023-11-21T03:30:56;9.80;100.00
15630;DHT22;7914;50.842;0.166;2023-11-21T03:33:22;9.90;100.00
15630;DHT22;7914;50.842;0.166;2023-11-21T03:35:48;10.00;100.00
15630;DHT22;7914;50.842;0.166;2023-11-21T03:38:14;10.00;100.00
15630;DHT22;7914;50.842;0.166;2023-11-21T03:40:41;10.00;100.00
15630;DHT22;7914;50.842;0.166;2023-11-21T03:43:08;10.10;100.00
15630;DHT22;7914;50.842;0.166;2023-11-21T03:49:14;10.20;100.00
15630;DHT22;7914;50.842;0.166;2023-11-21T03:51:40;10.30;100.00
15630;DHT22;7914;50.842;0.166;2023-11-21T03:54:06;10.30;100.00
15630;DHT22;7914;50.842;0.166;2023-11-21T03:56:31;10.30;100.00
15630;DHT22;7914;50.842;0.166;2023-11-21T03:58:57;10.40;100.00
15630;DHT22;7914;50.842;0.166;2023-11-21T04:01:23;10.40;100.00
15630;DHT22;7914;50.842;0.166;2023-11-21T04:03:49;10.50;100.00
15630;DHT22;7914;50.842;0.166;2023-11-21T04:06:16;10.50;100.00
15630;DHT22;7914;50.842;0.166;2023-11-21T04:08:43;10.50;100.00
15630;DHT22;7914;50.842;0.166;2023-11-21T04:11:10;10.50;100.00
15630;DHT22;7914;50.842;0.166;2023-11-21T04:13:40;10.50;100.00
15630;DHT22;7914;50.842;0.166;2023-11-21T04:16:06;10.50;100.00
15630;DHT22;7914;50.842;0.166;2023-11-21T04:18:33;10.50;100.00
15630;DHT22;7914;50.842;0.166;2023-11-21T04:20:59;10.50;100.00
15630;DHT22;7914;50.842;0.166;2023-11-21T04:23:25;10.50;100.00
15630;DHT22;7914;50.842;0.166;2023-11-21T04:25:52;10.60;100.00
15630;DHT22;7914;50.842;0.166;2023-11-21T04:28:19;10.60;100.00
15630;DHT22;7914;50.842;0.166;2023-11-21T04:30:45;10.60;100.00
15630;DHT22;7914;50.842;0.166;2023-11-21T04:33:11;10.60;100.00
15630;DHT22;7914;50.842;0.166;2023-11-21T04:35:36;10.60;100.00
15630;DHT22;7914;50.842;0.166;2023-11-21T04:38:02;10.70;100.00
15630;DHT22;7914;50.842;0.166;2023-11-21T04:40:28;10.60;100.00
15630;DHT22;7914;50.842;0.166;2023-11-21T04:42:54;10.50;100.00
15630;DHT22;7914;50.842;0.166;2023-11-21T04:45:19;10.60;100.00
15630;DHT22;7914;50.842;0.166;2023-11-21T04:47:45;10.60;100.00
15630;DHT22;7914;50.842;0.166;2023-11-21T04:50:14;10.60;100.00
15630;DHT22;7914;50.842;0.166;2023-11-21T04:52:39;10.60;100.00
15630;DHT22;7914;50.842;0.166;2023-11-21T04:55:06;10.60;100.00
15630;DHT22;7914;50.842;0.166;2023-11-21T04:57:36;10.60;100.00
15630;DHT22;7914;50.842;0.166;2023-11-21T05:00:02;10.60;100.00
15630;DHT22;7914;50.842;0.166;2023-11-21T05:02:34;10.60;100.00
15630;DHT22;7914;50.842;0.166;2023-11-21T05:05:01;10.60;100.00
15630;DHT22;7914;50.842;0.166;2023-11-21T05:07:26;10.60;100.00
15630;DHT22;7914;50.842;0.166;2023-11-21T05:09:55;10.50;100.00
15630;DHT22;7914;50.842;0.166;2023-11-21T05:12:22;10.60;100.00
15630;DHT22;7914;50.842;0.166;2023-11-21T05:14:51;10.50;100.00
15630;DHT22;7914;50.842;0.166;2023-11-21T05:17:17;10.50;100.00
15630;DHT22;7914;50.842;0.166;2023-11-21T05:19:42;10.50;100.00
15630;DHT22;7914;50.842;0.166;2023-11-21T05:22:11;10.50;100.00
15630;DHT22;7914;50.842;0.166;2023-11-21T05:24:37;10.50;100.00
15630;DHT22;7914;50.842;0.166;2023-11-21T05:27:05;10.50;100.00
15630;DHT22;7914;50.842;0.166;2023-11-21T05:29:30;10.50;100.00
15630;DHT22;7914;50.842;0.166;2023-11-21T05:31:56;10.50;100.00
15630;DHT22;7914;50.842;0.166;2023-11-21T05:34:22;10.50;100.00
15630;DHT22;7914;50.842;0.166;2023-11-21T05:36:50;10.50;100.00
15630;DHT22;7914;50.842;0.166;2023-11-21T05:39:16;10.50;100.00
15630;DHT22;7914;50.842;0.166;2023-11-21T05:41:46;10.50;100.00
15630;DHT22;7914;50.842;0.166;2023-11-21T05:44:12;10.50;100.00
15630;DHT22;7914;50.842;0.166;2023-11-21T05:46:40;10.50;100.00
15630;DHT22;7914;50.842;0.166;2023-11-21T05:49:06;10.50;100.00
15630;DHT22;7914;50.842;0.166;2023-11-21T05:51:34;10.50;100.00
15630;DHT22;7914;50.842;0.166;2023-11-21T05:54:00;10.50;100.00
15630;DHT22;7914;50.842;0.166;2023-11-21T05:56:25;10.50;100.00
15630;DHT22;7914;50.842;0.166;2023-11-21T05:58:51;10.40;100.00
15630;DHT22;7914;50.842;0.166;2023-11-21T06:01:17;10.40;100.00
15630;DHT22;7914;50.842;0.166;2023-11-21T06:03:43;10.50;100.00
15630;DHT22;7914;50.842;0.166;2023-11-21T06:06:09;10.50;100.00
15630;DHT22;7914;50.842;0.166;2023-11-21T06:08:34;10.50;100.00
15630;DHT22;7914;50.842;0.166;2023-11-21T06:11:00;10.50;100.00
15630;DHT22;7914;50.842;0.166;2023-11-21T06:13:26;10.50;100.00
15630;DHT22;7914;50.842;0.166;2023-11-21T06:15:52;10.50;100.00
15630;DHT22;7914;50.842;0.166;2023-11-21T06:18:18;10.40;100.00
15630;DHT22;7914;50.842;0.166;2023-11-21T06:20:45;10.40;100.00
15630;DHT22;7914;50.842;0.166;2023-11-21T06:23:11;10.40;100.00
15630;DHT22;7914;50.842;0.166;2023-11-21T06:25:37;10.40;100.00
15630;DHT22;7914;50.842;0.166;2023-11-21T06:28:04;10.40;100.00
15630;DHT22;7914;50.842;0.166;2023-11-21T06:30:29;10.40;100.00
15630;DHT22;7914;50.842;0.166;2023-11-21T06:32:55;10.40;100.00
15630;DHT22;7914;50.842;0.166;2023-11-21T06:35:21;10.40;100.00
15630;DHT22;7914;50.842;0.166;2023-11-21T06:37:47;10.40;100.00
15630;DHT22;7914;50.842;0.166;2023-11-21T06:40:13;10.40;100.00
15630;DHT22;7914;50.842;0.166;2023-11-21T06:42:43;10.40;100.00
15630;DHT22;7914;50.842;0.166;2023-11-21T06:45:10;10.40;100.00
15630;DHT22;7914;50.842;0.166;2023-11-21T06:47:36;10.40;100.00
15630;DHT22;7914;50.842;0.166;2023-11-21T06:50:03;10.40;100.00
15630;DHT22;7914;50.842;0.166;2023-11-21T06:52:29;10.30;100.00
15630;DHT22;7914;50.842;0.166;2023-11-21T06:54:55;10.40;100.00
15630;DHT22;7914;50.842;0.166;2023-11-21T06:57:23;10.30;100.00
15630;DHT22;7914;50.842;0.166;2023-11-21T06:59:48;10.30;100.00
15630;DHT22;7914;50.842;0.166;2023-11-21T07:02:16;10.30;100.00
15630;DHT22;7914;50.842;0.166;2023-11-21T07:04:45;10.30;100.00
15630;DHT22;7914;50.842;0.166;2023-11-21T07:07:11;10.30;100.00
15630;DHT22;7914;50.842;0.166;2023-11-21T07:09:37;10.30;100.00
15630;DHT22;7914;50.842;0.166;2023-11-21T07:12:03;10.20;100.00
15630;DHT22;7914;50.842;0.166;2023-11-21T07:14:31;10.20;100.00
15630;DHT22;7914;50.842;0.166;2023-11-21T07:16:57;10.20;100.00
15630;DHT22;7914;50.842;0.166;2023-11-21T07:19:23;10.20;100.00
15630;DHT22;7914;50.842;0.166;2023-11-21T07:21:49;10.10;100.00
15630;DHT22;7914;50.842;0.166;2023-11-21T07:24:17;10.10;100.00
15630;DHT22;7914;50.842;0.166;2023-11-21T07:26:43;10.10;100.00
15630;DHT22;7914;50.842;0.166;2023-11-21T07:29:09;10.10;100.00
15630;DHT22;7914;50.842;0.166;2023-11-21T07:31:37;10.10;100.00
15630;DHT22;7914;50.842;0.166;2023-11-21T07:34:03;10.10;100.00
15630;DHT22;7914;50.842;0.166;2023-11-21T07:36:29;10.00;100.00
15630;DHT22;7914;50.842;0.166;2023-11-21T07:38:55;10.00;100.00
15630;DHT22;7914;50.842;0.166;2023-11-21T07:41:21;10.10;100.00
15630;DHT22;7914;50.842;0.166;2023-11-21T07:43:47;10.10;100.00
15630;DHT22;7914;50.842;0.166;2023-11-21T07:46:13;10.00;100.00
15630;DHT22;7914;50.842;0.166;2023-11-21T07:48:40;10.10;100.00
15630;DHT22;7914;50.842;0.166;2023-11-21T07:51:08;10.00;100.00
15630;DHT22;7914;50.842;0.166;2023-11-21T07:53:34;10.00;100.00
15630;DHT22;7914;50.842;0.166;2023-11-21T07:56:07;10.00;100.00
15630;DHT22;7914;50.842;0.166;2023-11-21T07:58:34;9.90;100.00
15630;DHT22;7914;50.842;0.166;2023-11-21T08:01:01;9.80;100.00
15630;DHT22;7914;50.842;0.166;2023-11-21T08:03:27;9.80;100.00
15630;DHT22;7914;50.842;0.166;2023-11-21T08:05:54;9.70;100.00
15630;DHT22;7914;50.842;0.166;2023-11-21T08:08:20;9.70;100.00
15630;DHT22;7914;50.842;0.166;2023-11-21T08:10:46;9.70;100.00
15630;DHT22;7914;50.842;0.166;2023-11-21T08:13:25;9.80;100.00
15630;DHT22;7914;50.842;0.166;2023-11-21T08:15:54;9.80;100.00
15630;DHT22;7914;50.842;0.166;2023-11-21T08:18:20;9.90;100.00
15630;DHT22;7914;50.842;0.166;2023-11-21T08:20:46;9.90;100.00
15630;DHT22;7914;50.842;0.166;2023-11-21T08:23:15;10.00;100.00
15630;DHT22;7914;50.842;0.166;2023-11-21T08:25:46;9.90;100.00
15630;DHT22;7914;50.842;0.166;2023-11-21T08:28:12;9.90;100.00
15630;DHT22;7914;50.842;0.166;2023-11-21T08:30:40;10.00;100.00
15630;DHT22;7914;50.842;0.166;2023-11-21T08:33:07;10.00;100.00
15630;DHT22;7914;50.842;0.166;2023-11-21T08:35:34;10.00;100.00
15630;DHT22;7914;50.842;0.166;2023-11-21T08:38:00;10.00;100.00
15630;DHT22;7914;50.842;0.166;2023-11-21T08:40:26;10.00;100.00
15630;DHT22;7914;50.842;0.166;2023-11-21T08:42:52;10.00;100.00
15630;DHT22;7914;50.842;0.166;2023-11-21T08:45:19;10.00;100.00
15630;DHT22;7914;50.842;0.166;2023-11-21T08:47:45;10.00;100.00
15630;DHT22;7914;50.842;0.166;2023-11-21T08:50:11;9.90;100.00
15630;DHT22;7914;50.842;0.166;2023-11-21T08:54:05;9.90;100.00
15630;DHT22;7914;50.842;0.166;2023-11-21T08:57:58;10.00;100.00
15630;DHT22;7914;50.842;0.166;2023-11-21T09:00:24;10.00;100.00
15630;DHT22;7914;50.842;0.166;2023-11-21T09:03:20;10.00;100.00
15630;DHT22;7914;50.842;0.166;2023-11-21T09:05:46;10.10;100.00
15630;DHT22;7914;50.842;0.166;2023-11-21T09:08:11;10.10;100.00
15630;DHT22;7914;50.842;0.166;2023-11-21T09:10:37;10.10;100.00
15630;DHT22;7914;50.842;0.166;2023-11-21T09:13:04;10.10;100.00
15630;DHT22;7914;50.842;0.166;2023-11-21T09:15:30;10.10;100.00
15630;DHT22;7914;50.842;0.166;2023-11-21T09:17:56;10.10;100.00
15630;DHT22;7914;50.842;0.166;2023-11-21T09:20:21;10.10;100.00
15630;DHT22;7914;50.842;0.166;2023-11-21T09:22:48;10.10;100.00
15630;DHT22;7914;50.842;0.166;2023-11-21T09:25:14;10.10;100.00
15630;DHT22;7914;50.842;0.166;2023-11-21T09:27:40;10.10;100.00
15630;DHT22;7914;50.842;0.166;2023-11-21T09:30:07;10.10;100.00
15630;DHT22;7914;50.842;0.166;2023-11-21T09:32:37;10.10;100.00
15630;DHT22;7914;50.842;0.166;2023-11-21T09:35:04;10.20;100.00
15630;DHT22;7914;50.842;0.166;2023-11-21T09:37:31;10.20;100.00
15630;DHT22;7914;50.842;0.166;2023-11-21T09:39:56;10.10;100.00
15630;DHT22;7914;50.842;0.166;2023-11-21T09:45:04;10.10;100.00
15630;DHT22;7914;50.842;0.166;2023-11-21T09:47:32;10.10;100.00
15630;DHT22;7914;50.842;0.166;2023-11-21T09:50:01;10.10;100.00
15630;DHT22;7914;50.842;0.166;2023-11-21T09:52:28;10.10;100.00
15630;DHT22;7914;50.842;0.166;2023-11-21T09:54:55;10.00;100.00
15630;DHT22;7914;50.842;0.166;2023-11-21T09:57:24;10.10;100.00
15630;DHT22;7914;50.842;0.166;2023-11-21T09:59:54;10.10;100.00
15630;DHT22;7914;50.842;0.166;2023-11-21T10:02:27;10.20;100.00
15630;DHT22;7914;50.842;0.166;2023-11-21T10:04:55;10.20;100.00
15630;DHT22;7914;50.842;0.166;2023-11-21T10:07:22;10.30;100.00
15630;DHT22;7914;50.842;0.166;2023-11-21T10:09:48;10.30;100.00
15630;DHT22;7914;50.842;0.166;2023-11-21T10:12:16;10.30;100.00
15630;DHT22;7914;50.842;0.166;2023-11-21T10:14:42;10.40;100.00
15630;DHT22;7914;50.842;0.166;2023-11-21T10:17:15;10.40;100.00
15630;DHT22;7914;50.842;0.166;2023-11-21T10:19:46;10.40;100.00
15630;DHT22;7914;50.842;0.166;2023-11-21T10:22:13;10.30;100.00
15630;DHT22;7914;50.842;0.166;2023-11-21T10:24:40;10.30;100.00
15630;DHT22;7914;50.842;0.166;2023-11-21T10:27:06;10.30;100.00
15630;DHT22;7914;50.842;0.166;2023-11-21T10:29:31;10.40;100.00
15630;DHT22;7914;50.842;0.166;2023-11-21T10:32:02;10.40;100.00
15630;DHT22;7914;50.842;0.166;2023-11-21T10:34:28;10.40;100.00
15630;DHT22;7914;50.842;0.166;2023-11-21T10:36:53;10.50;100.00
15630;DHT22;7914;50.842;0.166;2023-11-21T10:39:22;10.60;100.00
15630;DHT22;7914;50.842;0.166;2023-11-21T10:41:49;10.60;100.00
15630;DHT22;7914;50.842;0.166;2023-11-21T10:44:19;10.60;100.00
15630;DHT22;7914;50.842;0.166;2023-11-21T10:46:53;10.60;100.00
15630;DHT22;7914;50.842;0.166;2023-11-21T10:49:23;10.60;100.00
15630;DHT22;7914;50.842;0.166;2023-11-21T10:51:50;10.70;100.00
15630;DHT22;7914;50.842;0.166;2023-11-21T10:54:22;10.90;100.00
15630;DHT22;7914;50.842;0.166;2023-11-21T10:56:50;10.90;100.00
15630;DHT22;7914;50.842;0.166;2023-11-21T10:59:16;11.00;100.00
15630;DHT22;7914;50.842;0.166;2023-11-21T11:01:45;11.00;100.00
15630;DHT22;7914;50.842;0.166;2023-11-21T11:04:12;11.10;100.00
15630;DHT22;7914;50.842;0.166;2023-11-21T11:06:51;11.10;100.00
15630;DHT22;7914;50.842;0.166;2023-11-21T11:09:19;11.10;100.00
15630;DHT22;7914;50.842;0.166;2023-11-21T11:11:45;11.10;100.00
15630;DHT22;7914;50.842;0.166;2023-11-21T11:14:12;11.20;100.00
15630;DHT22;7914;50.842;0.166;2023-11-21T11:16:39;11.20;100.00
15630;DHT22;7914;50.842;0.166;2023-11-21T11:19:07;11.20;100.00
15630;DHT22;7914;50.842;0.166;2023-11-21T11:21:37;11.20;100.00
15630;DHT22;7914;50.842;0.166;2023-11-21T11:24:17;11.00;100.00
15630;DHT22;7914;50.842;0.166;2023-11-21T11:27:06;10.90;100.00
15630;DHT22;7914;50.842;0.166;2023-11-21T11:36:10;11.00;100.00
15630;DHT22;7914;50.842;0.166;2023-11-21T11:38:38;11.00;100.00
15630;DHT22;7914;50.842;0.166;2023-11-21T11:41:06;11.10;100.00
15630;DHT22;7914;50.842;0.166;2023-11-21T11:43:32;11.10;100.00
15630;DHT22;7914;50.842;0.166;2023-11-21T11:45:59;11.10;100.00
15630;DHT22;7914;50.842;0.166;2023-11-21T11:48:25;11.20;100.00
15630;DHT22;7914;50.842;0.166;2023-11-21T11:51:10;11.20;100.00
15630;DHT22;7914;50.842;0.166;2023-11-21T11:53:40;11.20;100.00
15630;DHT22;7914;50.842;0.166;2023-11-21T11:56:33;11.20;100.00
15630;DHT22;7914;50.842;0.166;2023-11-21T11:59:04;11.30;100.00
15630;DHT22;7914;50.842;0.166;2023-11-21T12:01:33;11.30;100.00
15630;DHT22;7914;50.842;0.166;2023-11-21T12:06:41;11.30;100.00
15630;DHT22;7914;50.842;0.166;2023-11-21T12:09:10;11.30;100.00
15630;DHT22;7914;50.842;0.166;2023-11-21T12:11:41;11.30;100.00
15630;DHT22;7914;50.842;0.166;2023-11-21T12:14:09;11.30;100.00
15630;DHT22;7914;50.842;0.166;2023-11-21T12:16:35;11.30;100.00
15630;DHT22;7914;50.842;0.166;2023-11-21T12:19:01;11.30;100.00
15630;DHT22;7914;50.842;0.166;2023-11-21T12:21:27;11.40;100.00
15630;DHT22;7914;50.842;0.166;2023-11-21T12:23:54;11.30;100.00
15630;DHT22;7914;50.842;0.166;2023-11-21T12:26:19;11.30;100.00
15630;DHT22;7914;50.842;0.166;2023-11-21T12:28:52;11.20;100.00
15630;DHT22;7914;50.842;0.166;2023-11-21T12:31:24;11.10;100.00
15630;DHT22;7914;50.842;0.166;2023-11-21T12:33:50;11.20;100.00
15630;DHT22;7914;50.842;0.166;2023-11-21T12:36:16;11.20;100.00
15630;DHT22;7914;50.842;0.166;2023-11-21T12:38:42;11.20;100.00
15630;DHT22;7914;50.842;0.166;2023-11-21T12:41:09;11.20;100.00
15630;DHT22;7914;50.842;0.166;2023-11-21T12:43:35;11.20;100.00
15630;DHT22;7914;50.842;0.166;2023-11-21T12:46:11;11.20;100.00
15630;DHT22;7914;50.842;0.166;2023-11-21T12:48:46;11.30;100.00
15630;DHT22;7914;50.842;0.166;2023-11-21T12:51:12;11.30;100.00
15630;DHT22;7914;50.842;0.166;2023-11-21T12:53:40;11.30;100.00
15630;DHT22;7914;50.842;0.166;2023-11-21T12:56:07;11.20;100.00
15630;DHT22;7914;50.842;0.166;2023-11-21T12:58:35;11.20;100.00
15630;DHT22;7914;50.842;0.166;2023-11-21T13:01:05;11.30;100.00
15630;DHT22;7914;50.842;0.166;2023-11-21T13:03:30;11.30;100.00
15630;DHT22;7914;50.842;0.166;2023-11-21T13:05:58;11.20;100.00
15630;DHT22;7914;50.842;0.166;2023-11-21T13:08:25;11.30;100.00
15630;DHT22;7914;50.842;0.166;2023-11-21T13:10:53;11.40;100.00
15630;DHT22;7914;50.842;0.166;2023-11-21T13:13:20;11.50;100.00
15630;DHT22;7914;50.842;0.166;2023-11-21T13:16:02;11.60;100.00
15630;DHT22;7914;50.842;0.166;2023-11-21T13:18:31;11.60;100.00
15630;DHT22;7914;50.842;0.166;2023-11-21T13:20:58;11.50;100.00
15630;DHT22;7914;50.842;0.166;2023-11-21T13:23:26;11.50;100.00
15630;DHT22;7914;50.842;0.166;2023-11-21T13:25:52;11.40;100.00
15630;DHT22;7914;50.842;0.166;2023-11-21T13:28:18;11.40;100.00
15630;DHT22;7914;50.842;0.166;2023-11-21T13:30:46;11.40;100.00
15630;DHT22;7914;50.842;0.166;2023-11-21T13:33:14;11.40;100.00
15630;DHT22;7914;50.842;0.166;2023-11-21T13:35:47;11.30;100.00
15630;DHT22;7914;50.842;0.166;2023-11-21T13:38:16;11.30;100.00
15630;DHT22;7914;50.842;0.166;2023-11-21T13:40:49;11.30;100.00
15630;DHT22;7914;50.842;0.166;2023-11-21T13:43:19;11.30;100.00
15630;DHT22;7914;50.842;0.166;2023-11-21T13:45:46;11.10;100.00
15630;DHT22;7914;50.842;0.166;2023-11-21T13:48:13;11.20;100.00
15630;DHT22;7914;50.842;0.166;2023-11-21T13:50:50;11.20;100.00
15630;DHT22;7914;50.842;0.166;2023-11-21T13:53:24;11.20;100.00
15630;DHT22;7914;50.842;0.166;2023-11-21T13:55:51;11.20;100.00
15630;DHT22;7914;50.842;0.166;2023-11-21T13:58:20;11.10;100.00
15630;DHT22;7914;50.842;0.166;2023-11-21T14:00:51;11.10;100.00
15630;DHT22;7914;50.842;0.166;2023-11-21T14:03:23;11.00;100.00
15630;DHT22;7914;50.842;0.166;2023-11-21T14:05:51;11.10;100.00
15630;DHT22;7914;50.842;0.166;2023-11-21T14:08:20;11.10;100.00
15630;DHT22;7914;50.842;0.166;2023-11-21T14:10:49;11.10;100.00
15630;DHT22;7914;50.842;0.166;2023-11-21T14:13:21;11.20;100.00
15630;DHT22;7914;50.842;0.166;2023-11-21T14:16:00;11.20;100.00
15630;DHT22;7914;50.842;0.166;2023-11-21T14:18:28;11.20;100.00
15630;DHT22;7914;50.842;0.166;2023-11-21T14:21:06;11.30;100.00
15630;DHT22;7914;50.842;0.166;2023-11-21T14:23:33;11.30;100.00
15630;DHT22;7914;50.842;0.166;2023-11-21T14:26:01;11.30;100.00
15630;DHT22;7914;50.842;0.166;2023-11-21T14:28:27;11.30;100.00
15630;DHT22;7914;50.842;0.166;2023-11-21T14:30:53;11.30;100.00
15630;DHT22;7914;50.842;0.166;2023-11-21T14:33:18;11.40;100.00
15630;DHT22;7914;50.842;0.166;2023-11-21T14:35:44;11.40;100.00
15630;DHT22;7914;50.842;0.166;2023-11-21T14:38:10;11.30;100.00
15630;DHT22;7914;50.842;0.166;2023-11-21T14:40:36;11.30;100.00
15630;DHT22;7914;50.842;0.166;2023-11-21T14:43:03;11.30;100.00
15630;DHT22;7914;50.842;0.166;2023-11-21T14:45:32;11.30;100.00
15630;DHT22;7914;50.842;0.166;2023-11-21T14:47:58;11.30;100.00
15630;DHT22;7914;50.842;0.166;2023-11-21T14:50:30;11.20;100.00
15630;DHT22;7914;50.842;0.166;2023-11-21T14:53:09;11.30;100.00
15630;DHT22;7914;50.842;0.166;2023-11-21T14:55:37;11.20;100.00
15630;DHT22;7914;50.842;0.166;2023-11-21T14:58:17;11.20;100.00
15630;DHT22;7914;50.842;0.166;2023-11-21T15:00:56;11.20;100.00
15630;DHT22;7914;50.842;0.166;2023-11-21T15:03:27;11.20;100.00
15630;DHT22;7914;50.842;0.166;2023-11-21T15:05:56;11.20;100.00
15630;DHT22;7914;50.842;0.166;2023-11-21T15:08:22;11.20;100.00
15630;DHT22;7914;50.842;0.166;2023-11-21T15:10:58;11.30;100.00
15630;DHT22;7914;50.842;0.166;2023-11-21T15:13:24;11.30;100.00
15630;DHT22;7914;50.842;0.166;2023-11-21T15:15:52;11.30;100.00
15630;DHT22;7914;50.842;0.166;2023-11-21T15:18:20;11.30;100.00
15630;DHT22;7914;50.842;0.166;2023-11-21T15:20:46;11.30;100.00
15630;DHT22;7914;50.842;0.166;2023-11-21T15:23:12;11.20;100.00
15630;DHT22;7914;50.842;0.166;2023-11-21T15:25:42;11.20;100.00
15630;DHT22;7914;50.842;0.166;2023-11-21T15:28:08;11.20;100.00
15630;DHT22;7914;50.842;0.166;2023-11-21T15:30:34;11.20;100.00
15630;DHT22;7914;50.842;0.166;2023-11-21T15:33:00;11.20;100.00
15630;DHT22;7914;50.842;0.166;2023-11-21T15:35:29;11.20;100.00
15630;DHT22;7914;50.842;0.166;2023-11-21T15:37:54;11.10;100.00
15630;DHT22;7914;50.842;0.166;2023-11-21T15:40:24;11.20;100.00
15630;DHT22;7914;50.842;0.166;2023-11-21T15:42:50;11.10;100.00
15630;DHT22;7914;50.842;0.166;2023-11-21T15:45:16;11.00;100.00
15630;DHT22;7914;50.842;0.166;2023-11-21T15:47:44;11.00;100.00
15630;DHT22;7914;50.842;0.166;2023-11-21T15:50:10;11.00;100.00
15630;DHT22;7914;50.842;0.166;2023-11-21T15:52:36;10.90;100.00
15630;DHT22;7914;50.842;0.166;2023-11-21T15:55:02;10.90;100.00